sensor_id;sensor_type;location;lat;lon;timestamp;temperature;humidity
37642;DHT22;23486;51.956;5.888;2024-02-28T00:01:15;3.70;99.90
37642;DHT22;23486;51.956;5.888;2024-02-28T00:03:41;3.70;99.90
37642;DHT22;23486;51.956;5.888;2024-02-28T00:06:06;3.70;99.90
37642;DHT22;23486;51.956;5.888;2024-02-28T00:08:32;3.70;99.90
37642;DHT22;23486;51.956;5.888;2024-02-28T00:10:57;3.70;99.90
37642;DHT22;23486;51.956;5.888;2024-02-28T00:13:25;3.70;99.90
37642;DHT22;23486;51.956;5.888;2024-02-28T00:15:51;3.70;99.90
37642;DHT22;23486;51.956;5.888;2024-02-28T00:18:16;3.60;99.90
37642;DHT22;23486;51.956;5.888;2024-02-28T00:20:44;3.60;99.90
37642;DHT22;23486;51.956;5.888;2024-02-28T00:23:12;3.60;99.90
37642;DHT22;23486;51.956;5.888;2024-02-28T00:25:38;3.50;99.90
37642;DHT22;23486;51.956;5.888;2024-02-28T00:28:03;3.50;99.90
37642;DHT22;23486;51.956;5.888;2024-02-28T00:30:29;3.50;99.90
37642;DHT22;23486;51.956;5.888;2024-02-28T00:32:54;3.50;99.90
37642;DHT22;23486;51.956;5.888;2024-02-28T00:35:20;3.50;99.90
37642;DHT22;23486;51.956;5.888;2024-02-28T00:37:45;3.50;99.90
37642;DHT22;23486;51.956;5.888;2024-02-28T00:40:11;3.40;99.90
37642;DHT22;23486;51.956;5.888;2024-02-28T00:42:36;3.40;99.90
37642;DHT22;23486;51.956;5.888;2024-02-28T00:45:02;3.40;99.90
37642;DHT22;23486;51.956;5.888;2024-02-28T00:47:28;3.40;99.90
37642;DHT22;23486;51.956;5.888;2024-02-28T00:49:53;3.40;99.90
37642;DHT22;23486;51.956;5.888;2024-02-28T00:52:19;3.30;99.90
37642;DHT22;23486;51.956;5.888;2024-02-28T00:54:44;3.40;99.90
37642;DHT22;23486;51.956;5.888;2024-02-28T00:57:10;3.40;99.90
37642;DHT22;23486;51.956;5.888;2024-02-28T00:59:35;3.40;99.90
37642;DHT22;23486;51.956;5.888;2024-02-28T01:02:00;3.50;99.90
37642;DHT22;23486;51.956;5.888;2024-02-28T01:04:26;3.50;99.90
37642;DHT22;23486;51.956;5.888;2024-02-28T01:06:52;3.50;99.90
37642;DHT22;23486;51.956;5.888;2024-02-28T01:09:17;3.50;99.90
37642;DHT22;23486;51.956;5.888;2024-02-28T01:11:43;3.50;99.90
37642;DHT22;23486;51.956;5.888;2024-02-28T01:14:08;3.50;99.90
37642;DHT22;23486;51.956;5.888;2024-02-28T01:16:34;3.50;99.90
37642;DHT22;23486;51.956;5.888;2024-02-28T01:18:59;3.50;99.90
37642;DHT22;23486;51.956;5.888;2024-02-28T01:21:25;3.50;99.90
37642;DHT22;23486;51.956;5.888;2024-02-28T01:23:51;3.50;99.90
37642;DHT22;23486;51.956;5.888;2024-02-28T01:26:16;3.50;99.90
37642;DHT22;23486;51.956;5.888;2024-02-28T01:28:42;3.50;99.90
37642;DHT22;23486;51.956;5.888;2024-02-28T01:31:10;3.40;99.90
37642;DHT22;23486;51.956;5.888;2024-02-28T01:33:36;3.50;99.90
37642;DHT22;23486;51.956;5.888;2024-02-28T01:36:01;3.50;99.90
37642;DHT22;23486;51.956;5.888;2024-02-28T01:38:27;3.50;99.90
37642;DHT22;23486;51.956;5.888;2024-02-28T01:40:52;3.50;99.90
37642;DHT22;23486;51.956;5.888;2024-02-28T01:43:18;3.50;99.90
37642;DHT22;23486;51.956;5.888;2024-02-28T01:45:43;3.50;99.90
37642;DHT22;23486;51.956;5.888;2024-02-28T01:48:09;3.60;99.90
37642;DHT22;23486;51.956;5.888;2024-02-28T01:50:35;3.50;99.90
37642;DHT22;23486;51.956;5.888;2024-02-28T01:53:02;3.50;99.90
37642;DHT22;23486;51.956;5.888;2024-02-28T01:55:28;3.50;99.90
37642;DHT22;23486;51.956;5.888;2024-02-28T01:57:53;3.40;99.90
37642;DHT22;23486;51.956;5.888;2024-02-28T02:00:19;3.40;99.90
37642;DHT22;23486;51.956;5.888;2024-02-28T02:02:45;3.40;99.90
37642;DHT22;23486;51.956;5.888;2024-02-28T02:05:10;3.40;99.90
37642;DHT22;23486;51.956;5.888;2024-02-28T02:07:36;3.40;99.90
37642;DHT22;23486;51.956;5.888;2024-02-28T02:10:01;3.40;99.90
37642;DHT22;23486;51.956;5.888;2024-02-28T02:12:27;3.40;99.90
37642;DHT22;23486;51.956;5.888;2024-02-28T02:14:52;3.40;99.90
37642;DHT22;23486;51.956;5.888;2024-02-28T02:17:18;3.40;99.90
37642;DHT22;23486;51.956;5.888;2024-02-28T02:19:43;3.40;99.90
37642;DHT22;23486;51.956;5.888;2024-02-28T02:22:09;3.40;99.90
37642;DHT22;23486;51.956;5.888;2024-02-28T02:24:35;3.40;99.90
37642;DHT22;23486;51.956;5.888;2024-02-28T02:27:02;3.40;99.90
37642;DHT22;23486;51.956;5.888;2024-02-28T02:29:30;3.50;99.90
37642;DHT22;23486;51.956;5.888;2024-02-28T02:31:55;3.40;99.90
37642;DHT22;23486;51.956;5.888;2024-02-28T02:34:20;3.50;99.90
37642;DHT22;23486;51.956;5.888;2024-02-28T02:36:46;3.40;99.90
37642;DHT22;23486;51.956;5.888;2024-02-28T02:39:11;3.40;99.90
37642;DHT22;23486;51.956;5.888;2024-02-28T02:41:37;3.40;99.90
37642;DHT22;23486;51.956;5.888;2024-02-28T02:44:03;3.40;99.90
37642;DHT22;23486;51.956;5.888;2024-02-28T02:46:28;3.40;99.90
37642;DHT22;23486;51.956;5.888;2024-02-28T02:48:54;3.40;99.90
37642;DHT22;23486;51.956;5.888;2024-02-28T02:51:19;3.40;99.90
37642;DHT22;23486;51.956;5.888;2024-02-28T02:53:45;3.30;99.90
37642;DHT22;23486;51.956;5.888;2024-02-28T02:56:10;3.30;99.90
37642;DHT22;23486;51.956;5.888;2024-02-28T02:58:36;3.30;99.90
37642;DHT22;23486;51.956;5.888;2024-02-28T03:01:04;3.40;99.90
37642;DHT22;23486;51.956;5.888;2024-02-28T03:03:29;3.40;99.90
37642;DHT22;23486;51.956;5.888;2024-02-28T03:05:54;3.40;99.90
37642;DHT22;23486;51.956;5.888;2024-02-28T03:08:20;3.30;99.90
37642;DHT22;23486;51.956;5.888;2024-02-28T03:10:45;3.30;99.90
37642;DHT22;23486;51.956;5.888;2024-02-28T03:13:11;3.30;99.90
37642;DHT22;23486;51.956;5.888;2024-02-28T03:15:36;3.20;99.90
37642;DHT22;23486;51.956;5.888;2024-02-28T03:18:02;3.20;99.90
37642;DHT22;23486;51.956;5.888;2024-02-28T03:20:27;3.20;99.90
37642;DHT22;23486;51.956;5.888;2024-02-28T03:22:53;3.30;99.90
37642;DHT22;23486;51.956;5.888;2024-02-28T03:25:18;3.20;99.90
37642;DHT22;23486;51.956;5.888;2024-02-28T03:27:44;3.20;99.90
37642;DHT22;23486;51.956;5.888;2024-02-28T03:30:09;3.30;99.90
37642;DHT22;23486;51.956;5.888;2024-02-28T03:32:35;3.30;99.90
37642;DHT22;23486;51.956;5.888;2024-02-28T03:35:00;3.30;99.90
37642;DHT22;23486;51.956;5.888;2024-02-28T03:37:26;3.30;99.90
37642;DHT22;23486;51.956;5.888;2024-02-28T03:39:51;3.40;99.90
37642;DHT22;23486;51.956;5.888;2024-02-28T03:42:16;3.40;99.90
37642;DHT22;23486;51.956;5.888;2024-02-28T03:44:42;3.40;99.90
37642;DHT22;23486;51.956;5.888;2024-02-28T03:47:08;3.30;99.90
37642;DHT22;23486;51.956;5.888;2024-02-28T03:49:34;3.30;99.90
37642;DHT22;23486;51.956;5.888;2024-02-28T03:51:59;3.30;99.90
37642;DHT22;23486;51.956;5.888;2024-02-28T03:54:25;3.30;99.90
37642;DHT22;23486;51.956;5.888;2024-02-28T03:56:51;3.30;99.90
37642;DHT22;23486;51.956;5.888;2024-02-28T03:59:17;3.30;99.90
37642;DHT22;23486;51.956;5.888;2024-02-28T04:01:42;3.20;99.90
37642;DHT22;23486;51.956;5.888;2024-02-28T04:04:07;3.20;99.90
37642;DHT22;23486;51.956;5.888;2024-02-28T04:06:33;3.20;99.90
37642;DHT22;23486;51.956;5.888;2024-02-28T04:08:58;3.10;99.90
37642;DHT22;23486;51.956;5.888;2024-02-28T04:11:24;3.20;99.90
37642;DHT22;23486;51.956;5.888;2024-02-28T04:13:49;3.20;99.90
37642;DHT22;23486;51.956;5.888;2024-02-28T04:16:15;3.10;99.90
37642;DHT22;23486;51.956;5.888;2024-02-28T04:18:40;3.10;99.90
37642;DHT22;23486;51.956;5.888;2024-02-28T04:21:06;3.10;99.90
37642;DHT22;23486;51.956;5.888;2024-02-28T04:23:31;3.10;99.90
37642;DHT22;23486;51.956;5.888;2024-02-28T04:25:57;3.10;99.90
37642;DHT22;23486;51.956;5.888;2024-02-28T04:28:22;3.10;99.90
37642;DHT22;23486;51.956;5.888;2024-02-28T04:30:48;3.10;99.90
37642;DHT22;23486;51.956;5.888;2024-02-28T04:35:41;3.10;99.90
37642;DHT22;23486;51.956;5.888;2024-02-28T04:38:09;3.10;99.90
37642;DHT22;23486;51.956;5.888;2024-02-28T04:40:35;3.10;99.90
37642;DHT22;23486;51.956;5.888;2024-02-28T04:43:00;3.10;99.90
37642;DHT22;23486;51.956;5.888;2024-02-28T04:45:26;3.10;99.90
37642;DHT22;23486;51.956;5.888;2024-02-28T04:47:51;3.10;99.90
37642;DHT22;23486;51.956;5.888;2024-02-28T04:50:19;3.10;99.90
37642;DHT22;23486;51.956;5.888;2024-02-28T04:52:44;3.10;99.90
37642;DHT22;23486;51.956;5.888;2024-02-28T04:55:10;3.10;99.90
37642;DHT22;23486;51.956;5.888;2024-02-28T04:57:35;3.10;99.90
37642;DHT22;23486;51.956;5.888;2024-02-28T05:00:01;3.10;99.90
37642;DHT22;23486;51.956;5.888;2024-02-28T05:02:27;3.10;99.90
37642;DHT22;23486;51.956;5.888;2024-02-28T05:04:52;3.00;99.90
37642;DHT22;23486;51.956;5.888;2024-02-28T05:07:17;3.10;99.90
37642;DHT22;23486;51.956;5.888;2024-02-28T05:09:43;3.00;99.90
37642;DHT22;23486;51.956;5.888;2024-02-28T05:12:08;3.00;99.90
37642;DHT22;23486;51.956;5.888;2024-02-28T05:14:37;3.00;99.90
37642;DHT22;23486;51.956;5.888;2024-02-28T05:17:03;3.00;99.90
37642;DHT22;23486;51.956;5.888;2024-02-28T05:19:28;3.00;99.90
37642;DHT22;23486;51.956;5.888;2024-02-28T05:21:54;3.00;99.90
37642;DHT22;23486;51.956;5.888;2024-02-28T05:24:19;2.90;99.90
37642;DHT22;23486;51.956;5.888;2024-02-28T05:26:44;2.90;99.90
37642;DHT22;23486;51.956;5.888;2024-02-28T05:29:10;2.80;99.90
37642;DHT22;23486;51.956;5.888;2024-02-28T05:31:35;2.80;99.90
37642;DHT22;23486;51.956;5.888;2024-02-28T05:34:03;2.80;99.90
37642;DHT22;23486;51.956;5.888;2024-02-28T05:36:29;2.80;99.90
37642;DHT22;23486;51.956;5.888;2024-02-28T05:38:55;2.70;99.90
37642;DHT22;23486;51.956;5.888;2024-02-28T05:41:21;2.70;99.90
37642;DHT22;23486;51.956;5.888;2024-02-28T05:43:47;2.70;99.90
37642;DHT22;23486;51.956;5.888;2024-02-28T05:46:13;2.70;99.90
37642;DHT22;23486;51.956;5.888;2024-02-28T05:48:42;2.80;99.90
37642;DHT22;23486;51.956;5.888;2024-02-28T05:51:07;2.80;99.90
37642;DHT22;23486;51.956;5.888;2024-02-28T05:53:33;2.80;99.90
37642;DHT22;23486;51.956;5.888;2024-02-28T05:56:02;2.80;99.90
37642;DHT22;23486;51.956;5.888;2024-02-28T05:58:28;2.70;99.90
37642;DHT22;23486;51.956;5.888;2024-02-28T06:00:53;2.70;99.90
37642;DHT22;23486;51.956;5.888;2024-02-28T06:03:19;2.60;99.90
37642;DHT22;23486;51.956;5.888;2024-02-28T06:05:44;2.60;99.90
37642;DHT22;23486;51.956;5.888;2024-02-28T06:08:10;2.60;99.90
37642;DHT22;23486;51.956;5.888;2024-02-28T06:10:35;2.50;99.90
37642;DHT22;23486;51.956;5.888;2024-02-28T06:13:01;2.50;99.90
37642;DHT22;23486;51.956;5.888;2024-02-28T06:15:27;2.50;99.90
37642;DHT22;23486;51.956;5.888;2024-02-28T06:17:52;2.50;99.90
37642;DHT22;23486;51.956;5.888;2024-02-28T06:20:18;2.50;99.90
37642;DHT22;23486;51.956;5.888;2024-02-28T06:22:43;2.40;99.90
37642;DHT22;23486;51.956;5.888;2024-02-28T06:25:09;2.40;99.90
37642;DHT22;23486;51.956;5.888;2024-02-28T06:27:43;2.40;99.90
37642;DHT22;23486;51.956;5.888;2024-02-28T06:30:09;2.40;99.90
37642;DHT22;23486;51.956;5.888;2024-02-28T06:32:34;2.40;99.90
37642;DHT22;23486;51.956;5.888;2024-02-28T06:35:00;2.40;99.90
37642;DHT22;23486;51.956;5.888;2024-02-28T06:37:25;2.30;99.90
37642;DHT22;23486;51.956;5.888;2024-02-28T06:39:51;2.30;99.90
37642;DHT22;23486;51.956;5.888;2024-02-28T06:42:16;2.30;99.90
37642;DHT22;23486;51.956;5.888;2024-02-28T06:44:42;2.30;99.90
37642;DHT22;23486;51.956;5.888;2024-02-28T06:47:08;2.40;99.90
37642;DHT22;23486;51.956;5.888;2024-02-28T06:49:34;2.40;99.90
37642;DHT22;23486;51.956;5.888;2024-02-28T06:51:59;2.50;99.90
37642;DHT22;23486;51.956;5.888;2024-02-28T06:54:27;2.50;99.90
37642;DHT22;23486;51.956;5.888;2024-02-28T06:56:52;2.60;99.90
37642;DHT22;23486;51.956;5.888;2024-02-28T06:59:17;2.60;99.90
37642;DHT22;23486;51.956;5.888;2024-02-28T07:01:43;2.70;99.90
37642;DHT22;23486;51.956;5.888;2024-02-28T07:04:08;2.70;99.90
37642;DHT22;23486;51.956;5.888;2024-02-28T07:06:34;2.70;99.90
37642;DHT22;23486;51.956;5.888;2024-02-28T07:08:59;2.80;99.90
37642;DHT22;23486;51.956;5.888;2024-02-28T07:11:25;2.80;99.90
37642;DHT22;23486;51.956;5.888;2024-02-28T07:13:50;2.90;99.90
37642;DHT22;23486;51.956;5.888;2024-02-28T07:16:16;2.90;99.90
37642;DHT22;23486;51.956;5.888;2024-02-28T07:18:41;3.00;99.90
37642;DHT22;23486;51.956;5.888;2024-02-28T07:21:07;3.00;99.90
37642;DHT22;23486;51.956;5.888;2024-02-28T07:23:33;3.00;99.90
37642;DHT22;23486;51.956;5.888;2024-02-28T07:26:00;3.10;99.90
37642;DHT22;23486;51.956;5.888;2024-02-28T07:28:31;3.10;99.90
37642;DHT22;23486;51.956;5.888;2024-02-28T07:30:57;3.20;99.90
37642;DHT22;23486;51.956;5.888;2024-02-28T07:33:22;3.20;99.90
37642;DHT22;23486;51.956;5.888;2024-02-28T07:35:48;3.20;99.90
37642;DHT22;23486;51.956;5.888;2024-02-28T07:38:14;3.30;99.90
37642;DHT22;23486;51.956;5.888;2024-02-28T07:40:39;3.30;99.90
37642;DHT22;23486;51.956;5.888;2024-02-28T07:43:05;3.30;99.90
37642;DHT22;23486;51.956;5.888;2024-02-28T07:45:30;3.30;99.90
37642;DHT22;23486;51.956;5.888;2024-02-28T07:47:56;3.40;99.90
37642;DHT22;23486;51.956;5.888;2024-02-28T07:50:21;3.50;99.90
37642;DHT22;23486;51.956;5.888;2024-02-28T07:52:46;3.50;99.90
37642;DHT22;23486;51.956;5.888;2024-02-28T07:55:12;3.60;99.90
37642;DHT22;23486;51.956;5.888;2024-02-28T07:57:37;3.70;99.90
37642;DHT22;23486;51.956;5.888;2024-02-28T08:00:03;3.80;99.90
37642;DHT22;23486;51.956;5.888;2024-02-28T08:02:29;3.90;99.90
37642;DHT22;23486;51.956;5.888;2024-02-28T08:04:55;3.90;99.90
37642;DHT22;23486;51.956;5.888;2024-02-28T08:07:21;4.00;99.90
37642;DHT22;23486;51.956;5.888;2024-02-28T08:09:47;4.00;99.90
37642;DHT22;23486;51.956;5.888;2024-02-28T08:12:12;4.00;99.90
37642;DHT22;23486;51.956;5.888;2024-02-28T08:14:37;4.00;99.90
37642;DHT22;23486;51.956;5.888;2024-02-28T08:17:03;4.00;99.90
37642;DHT22;23486;51.956;5.888;2024-02-28T08:19:28;4.10;99.90
37642;DHT22;23486;51.956;5.888;2024-02-28T08:21:54;4.10;99.90
37642;DHT22;23486;51.956;5.888;2024-02-28T08:24:19;4.10;99.90
37642;DHT22;23486;51.956;5.888;2024-02-28T08:26:45;4.20;99.90
37642;DHT22;23486;51.956;5.888;2024-02-28T08:29:10;4.20;99.90
37642;DHT22;23486;51.956;5.888;2024-02-28T08:31:39;4.30;99.90
37642;DHT22;23486;51.956;5.888;2024-02-28T08:34:05;4.40;99.90
37642;DHT22;23486;51.956;5.888;2024-02-28T08:36:31;4.50;99.90
37642;DHT22;23486;51.956;5.888;2024-02-28T08:38:57;4.50;99.90
37642;DHT22;23486;51.956;5.888;2024-02-28T08:41:22;4.50;99.90
37642;DHT22;23486;51.956;5.888;2024-02-28T08:43:48;4.40;99.90
37642;DHT22;23486;51.956;5.888;2024-02-28T08:46:14;4.50;99.90
37642;DHT22;23486;51.956;5.888;2024-02-28T08:48:41;4.50;99.90
37642;DHT22;23486;51.956;5.888;2024-02-28T08:51:07;4.60;99.90
37642;DHT22;23486;51.956;5.888;2024-02-28T08:53:32;4.70;99.90
37642;DHT22;23486;51.956;5.888;2024-02-28T08:56:01;4.70;99.90
37642;DHT22;23486;51.956;5.888;2024-02-28T08:58:26;4.90;99.90
37642;DHT22;23486;51.956;5.888;2024-02-28T09:00:52;5.00;99.90
37642;DHT22;23486;51.956;5.888;2024-02-28T09:03:17;5.10;99.90
37642;DHT22;23486;51.956;5.888;2024-02-28T09:05:44;5.20;99.90
37642;DHT22;23486;51.956;5.888;2024-02-28T09:08:10;5.20;99.90
37642;DHT22;23486;51.956;5.888;2024-02-28T09:10:35;5.30;99.90
37642;DHT22;23486;51.956;5.888;2024-02-28T09:13:01;5.40;99.90
37642;DHT22;23486;51.956;5.888;2024-02-28T09:15:26;5.40;99.90
37642;DHT22;23486;51.956;5.888;2024-02-28T09:17:52;5.50;99.90
37642;DHT22;23486;51.956;5.888;2024-02-28T09:20:17;5.60;99.90
37642;DHT22;23486;51.956;5.888;2024-02-28T09:22:43;5.70;99.90
37642;DHT22;23486;51.956;5.888;2024-02-28T09:25:08;5.70;99.90
37642;DHT22;23486;51.956;5.888;2024-02-28T09:27:34;5.70;99.90
37642;DHT22;23486;51.956;5.888;2024-02-28T09:30:03;5.60;99.90
37642;DHT22;23486;51.956;5.888;2024-02-28T09:32:29;5.60;99.90
37642;DHT22;23486;51.956;5.888;2024-02-28T09:34:58;5.60;99.90
37642;DHT22;23486;51.956;5.888;2024-02-28T09:37:23;5.60;99.90
37642;DHT22;23486;51.956;5.888;2024-02-28T09:39:50;5.60;99.90
37642;DHT22;23486;51.956;5.888;2024-02-28T09:42:15;5.60;99.90
37642;DHT22;23486;51.956;5.888;2024-02-28T09:44:44;5.50;99.90
37642;DHT22;23486;51.956;5.888;2024-02-28T09:47:09;5.50;99.90
37642;DHT22;23486;51.956;5.888;2024-02-28T09:49:36;5.60;99.90
37642;DHT22;23486;51.956;5.888;2024-02-28T09:52:03;5.60;99.90
37642;DHT22;23486;51.956;5.888;2024-02-28T09:54:28;5.60;99.90
37642;DHT22;23486;51.956;5.888;2024-02-28T09:56:54;5.70;99.90
37642;DHT22;23486;51.956;5.888;2024-02-28T09:59:20;5.70;99.90
37642;DHT22;23486;51.956;5.888;2024-02-28T10:01:47;5.90;99.90
37642;DHT22;23486;51.956;5.888;2024-02-28T10:04:15;5.90;99.90
37642;DHT22;23486;51.956;5.888;2024-02-28T10:06:40;6.00;99.90
37642;DHT22;23486;51.956;5.888;2024-02-28T10:09:06;6.10;99.90
37642;DHT22;23486;51.956;5.888;2024-02-28T10:11:32;6.00;99.90
37642;DHT22;23486;51.956;5.888;2024-02-28T10:13:58;6.10;99.90
37642;DHT22;23486;51.956;5.888;2024-02-28T10:16:24;6.10;99.90
37642;DHT22;23486;51.956;5.888;2024-02-28T10:18:50;6.20;99.90
37642;DHT22;23486;51.956;5.888;2024-02-28T10:21:15;6.20;99.90
37642;DHT22;23486;51.956;5.888;2024-02-28T10:23:41;6.30;99.90
37642;DHT22;23486;51.956;5.888;2024-02-28T10:26:08;6.40;99.90
37642;DHT22;23486;51.956;5.888;2024-02-28T10:28:36;6.50;99.90
37642;DHT22;23486;51.956;5.888;2024-02-28T10:31:01;6.60;99.90
37642;DHT22;23486;51.956;5.888;2024-02-28T10:33:27;6.60;99.90
37642;DHT22;23486;51.956;5.888;2024-02-28T10:35:55;6.60;99.90
37642;DHT22;23486;51.956;5.888;2024-02-28T10:38:21;6.60;99.90
37642;DHT22;23486;51.956;5.888;2024-02-28T10:40:47;6.60;99.90
37642;DHT22;23486;51.956;5.888;2024-02-28T10:43:12;6.60;99.90
37642;DHT22;23486;51.956;5.888;2024-02-28T10:45:42;6.60;99.90
37642;DHT22;23486;51.956;5.888;2024-02-28T10:48:08;6.60;99.90
37642;DHT22;23486;51.956;5.888;2024-02-28T10:50:33;6.70;99.90
37642;DHT22;23486;51.956;5.888;2024-02-28T10:53:00;6.70;99.90
37642;DHT22;23486;51.956;5.888;2024-02-28T10:55:27;6.80;99.90
37642;DHT22;23486;51.956;5.888;2024-02-28T10:58:01;6.90;99.90
37642;DHT22;23486;51.956;5.888;2024-02-28T11:00:27;6.90;99.90
37642;DHT22;23486;51.956;5.888;2024-02-28T11:02:53;7.10;99.90
37642;DHT22;23486;51.956;5.888;2024-02-28T11:05:19;7.20;99.90
37642;DHT22;23486;51.956;5.888;2024-02-28T11:07:44;7.20;99.90
37642;DHT22;23486;51.956;5.888;2024-02-28T11:10:10;7.20;99.90
37642;DHT22;23486;51.956;5.888;2024-02-28T11:12:37;7.20;99.90
37642;DHT22;23486;51.956;5.888;2024-02-28T11:15:03;7.10;99.90
37642;DHT22;23486;51.956;5.888;2024-02-28T11:17:32;7.10;99.90
37642;DHT22;23486;51.956;5.888;2024-02-28T11:19:57;7.10;99.90
37642;DHT22;23486;51.956;5.888;2024-02-28T11:22:23;7.10;99.90
37642;DHT22;23486;51.956;5.888;2024-02-28T11:24:48;7.20;99.90
37642;DHT22;23486;51.956;5.888;2024-02-28T11:27:15;7.30;99.90
37642;DHT22;23486;51.956;5.888;2024-02-28T11:29:41;7.40;99.90
37642;DHT22;23486;51.956;5.888;2024-02-28T11:32:06;7.50;99.90
37642;DHT22;23486;51.956;5.888;2024-02-28T11:34:33;7.70;99.90
37642;DHT22;23486;51.956;5.888;2024-02-28T11:36:59;7.70;99.90
37642;DHT22;23486;51.956;5.888;2024-02-28T11:39:24;7.70;99.90
37642;DHT22;23486;51.956;5.888;2024-02-28T11:41:51;7.60;99.90
37642;DHT22;23486;51.956;5.888;2024-02-28T11:44:17;7.70;99.90
37642;DHT22;23486;51.956;5.888;2024-02-28T11:46:47;7.70;99.90
37642;DHT22;23486;51.956;5.888;2024-02-28T11:49:13;7.80;99.90
37642;DHT22;23486;51.956;5.888;2024-02-28T11:51:42;7.80;99.90
37642;DHT22;23486;51.956;5.888;2024-02-28T11:54:08;7.80;99.90
37642;DHT22;23486;51.956;5.888;2024-02-28T11:56:34;7.80;99.90
37642;DHT22;23486;51.956;5.888;2024-02-28T11:59:00;7.90;99.90
37642;DHT22;23486;51.956;5.888;2024-02-28T12:01:39;8.00;99.90
37642;DHT22;23486;51.956;5.888;2024-02-28T12:04:05;8.10;99.90
37642;DHT22;23486;51.956;5.888;2024-02-28T12:06:31;8.20;99.90
37642;DHT22;23486;51.956;5.888;2024-02-28T12:08:56;8.30;99.90
37642;DHT22;23486;51.956;5.888;2024-02-28T12:11:23;8.40;99.90
37642;DHT22;23486;51.956;5.888;2024-02-28T12:13:52;8.50;99.90
37642;DHT22;23486;51.956;5.888;2024-02-28T12:16:17;8.60;99.90
37642;DHT22;23486;51.956;5.888;2024-02-28T12:18:43;8.60;99.90
37642;DHT22;23486;51.956;5.888;2024-02-28T12:21:08;8.70;99.90
37642;DHT22;23486;51.956;5.888;2024-02-28T12:23:34;8.70;99.90
37642;DHT22;23486;51.956;5.888;2024-02-28T12:25:59;8.80;99.90
37642;DHT22;23486;51.956;5.888;2024-02-28T12:28:25;8.80;99.90
37642;DHT22;23486;51.956;5.888;2024-02-28T12:30:54;8.80;99.90
37642;DHT22;23486;51.956;5.888;2024-02-28T12:33:19;8.90;99.90
37642;DHT22;23486;51.956;5.888;2024-02-28T12:35:45;8.90;99.90
37642;DHT22;23486;51.956;5.888;2024-02-28T12:38:10;8.90;99.90
37642;DHT22;23486;51.956;5.888;2024-02-28T12:40:36;8.90;99.90
37642;DHT22;23486;51.956;5.888;2024-02-28T12:43:01;9.00;99.90
37642;DHT22;23486;51.956;5.888;2024-02-28T12:45:26;9.00;99.90
37642;DHT22;23486;51.956;5.888;2024-02-28T12:47:55;9.00;99.90
37642;DHT22;23486;51.956;5.888;2024-02-28T12:50:22;9.10;99.90
37642;DHT22;23486;51.956;5.888;2024-02-28T12:52:50;9.20;99.90
37642;DHT22;23486;51.956;5.888;2024-02-28T12:55:19;9.20;99.90
37642;DHT22;23486;51.956;5.888;2024-02-28T12:57:44;9.10;99.90
37642;DHT22;23486;51.956;5.888;2024-02-28T13:00:10;9.20;99.90
37642;DHT22;23486;51.956;5.888;2024-02-28T13:02:36;9.20;99.90
37642;DHT22;23486;51.956;5.888;2024-02-28T13:05:01;9.20;99.90
37642;DHT22;23486;51.956;5.888;2024-02-28T13:07:27;9.20;99.90
37642;DHT22;23486;51.956;5.888;2024-02-28T13:09:55;9.20;99.90
37642;DHT22;23486;51.956;5.888;2024-02-28T13:12:20;9.30;99.90
37642;DHT22;23486;51.956;5.888;2024-02-28T13:14:46;9.30;99.90
37642;DHT22;23486;51.956;5.888;2024-02-28T13:17:12;9.40;99.90
37642;DHT22;23486;51.956;5.888;2024-02-28T13:19:38;9.50;99.90
37642;DHT22;23486;51.956;5.888;2024-02-28T13:22:03;9.50;99.90
37642;DHT22;23486;51.956;5.888;2024-02-28T13:24:29;9.50;99.90
37642;DHT22;23486;51.956;5.888;2024-02-28T13:26:54;9.50;99.90
37642;DHT22;23486;51.956;5.888;2024-02-28T13:29:20;9.40;99.90
37642;DHT22;23486;51.956;5.888;2024-02-28T13:31:45;9.40;99.90
37642;DHT22;23486;51.956;5.888;2024-02-28T13:34:11;9.40;99.90
37642;DHT22;23486;51.956;5.888;2024-02-28T13:36:36;9.40;99.90
37642;DHT22;23486;51.956;5.888;2024-02-28T13:39:10;9.40;99.90
37642;DHT22;23486;51.956;5.888;2024-02-28T13:41:38;9.30;99.90
37642;DHT22;23486;51.956;5.888;2024-02-28T13:44:03;9.30;99.90
37642;DHT22;23486;51.956;5.888;2024-02-28T13:46:29;9.30;99.90
37642;DHT22;23486;51.956;5.888;2024-02-28T13:48:55;9.30;99.90
37642;DHT22;23486;51.956;5.888;2024-02-28T13:51:21;9.30;99.90
37642;DHT22;23486;51.956;5.888;2024-02-28T13:53:47;9.30;99.90
37642;DHT22;23486;51.956;5.888;2024-02-28T13:56:12;9.30;99.90
37642;DHT22;23486;51.956;5.888;2024-02-28T13:58:37;9.40;99.90
37642;DHT22;23486;51.956;5.888;2024-02-28T14:01:04;9.40;99.90
37642;DHT22;23486;51.956;5.888;2024-02-28T14:03:32;9.40;99.90
37642;DHT22;23486;51.956;5.888;2024-02-28T14:05:57;9.40;99.90
37642;DHT22;23486;51.956;5.888;2024-02-28T14:08:22;9.40;99.90
37642;DHT22;23486;51.956;5.888;2024-02-28T14:10:48;9.40;99.90
37642;DHT22;23486;51.956;5.888;2024-02-28T14:13:13;9.50;99.90
37642;DHT22;23486;51.956;5.888;2024-02-28T14:15:40;9.50;99.90
37642;DHT22;23486;51.956;5.888;2024-02-28T14:18:06;9.50;99.90
37642;DHT22;23486;51.956;5.888;2024-02-28T14:20:31;9.50;99.90
37642;DHT22;23486;51.956;5.888;2024-02-28T14:22:57;9.50;99.90
37642;DHT22;23486;51.956;5.888;2024-02-28T14:25:23;9.50;99.90
37642;DHT22;23486;51.956;5.888;2024-02-28T14:27:48;9.40;99.90
37642;DHT22;23486;51.956;5.888;2024-02-28T14:30:14;9.30;99.90
37642;DHT22;23486;51.956;5.888;2024-02-28T14:32:40;9.30;99.90
37642;DHT22;23486;51.956;5.888;2024-02-28T14:35:06;9.20;99.90
37642;DHT22;23486;51.956;5.888;2024-02-28T14:37:32;9.20;99.90
37642;DHT22;23486;51.956;5.888;2024-02-28T14:39:59;9.20;99.90
37642;DHT22;23486;51.956;5.888;2024-02-28T14:42:25;9.20;99.90
37642;DHT22;23486;51.956;5.888;2024-02-28T14:44:50;9.30;99.90
37642;DHT22;23486;51.956;5.888;2024-02-28T14:47:21;9.30;99.90
37642;DHT22;23486;51.956;5.888;2024-02-28T14:49:47;9.40;99.90
37642;DHT22;23486;51.956;5.888;2024-02-28T14:52:12;9.40;99.90
37642;DHT22;23486;51.956;5.888;2024-02-28T14:54:39;9.40;99.90
37642;DHT22;23486;51.956;5.888;2024-02-28T14:57:05;9.40;99.90
37642;DHT22;23486;51.956;5.888;2024-02-28T14:59:31;9.30;99.90
37642;DHT22;23486;51.956;5.888;2024-02-28T15:01:57;9.30;99.90
37642;DHT22;23486;51.956;5.888;2024-02-28T15:04:22;9.30;99.90
37642;DHT22;23486;51.956;5.888;2024-02-28T15:06:48;9.20;99.90
37642;DHT22;23486;51.956;5.888;2024-02-28T15:09:14;9.20;99.90
37642;DHT22;23486;51.956;5.888;2024-02-28T15:11:40;9.10;99.90
37642;DHT22;23486;51.956;5.888;2024-02-28T15:14:06;9.10;99.90
37642;DHT22;23486;51.956;5.888;2024-02-28T15:16:31;9.10;99.90
37642;DHT22;23486;51.956;5.888;2024-02-28T15:18:56;9.10;99.90
37642;DHT22;23486;51.956;5.888;2024-02-28T15:21:22;9.10;99.90
37642;DHT22;23486;51.956;5.888;2024-02-28T15:23:48;9.10;99.90
37642;DHT22;23486;51.956;5.888;2024-02-28T15:26:14;9.10;99.90
37642;DHT22;23486;51.956;5.888;2024-02-28T15:28:42;9.20;99.90
37642;DHT22;23486;51.956;5.888;2024-02-28T15:31:08;9.20;99.90
37642;DHT22;23486;51.956;5.888;2024-02-28T15:33:33;9.20;99.90
37642;DHT22;23486;51.956;5.888;2024-02-28T15:35:59;9.30;99.90
37642;DHT22;23486;51.956;5.888;2024-02-28T15:38:25;9.30;99.90